createdAt,value
2018-06-18T00:00:21.761Z,0.00
2018-06-18T00:01:21.747Z,0.00
2018-06-18T00:02:21.729Z,0.00
2018-06-18T00:03:21.714Z,0.00
2018-06-18T00:04:21.693Z,0.00
2018-06-18T00:05:21.680Z,0.00
2018-06-18T00:06:21.662Z,0.00
2018-06-18T00:07:21.649Z,0.00
2018-06-18T00:08:21.630Z,0.00
2018-06-18T00:09:21.613Z,0.00
2018-06-18T00:10:21.595Z,0.00
2018-06-18T00:11:21.581Z,0.00
2018-06-18T00:12:21.564Z,0.00
2018-06-18T00:13:21.546Z,0.00
2018-06-18T00:14:21.531Z,0.00
2018-06-18T00:15:21.518Z,0.00
2018-06-18T00:16:21.497Z,0.00
2018-06-18T00:17:21.480Z,0.00
2018-06-18T00:18:21.464Z,0.00
2018-06-18T00:19:21.447Z,0.00
2018-06-18T00:20:21.430Z,0.00
2018-06-18T00:21:21.412Z,0.00
2018-06-18T00:22:21.405Z,0.00
2018-06-18T00:23:21.379Z,0.00
2018-06-18T00:24:21.367Z,0.00
2018-06-18T00:25:21.345Z,0.00
2018-06-18T00:26:21.328Z,0.00
2018-06-18T00:27:21.313Z,0.00
2018-06-18T00:28:21.295Z,0.00
2018-06-18T00:29:21.279Z,0.00
2018-06-18T00:30:21.263Z,0.00
2018-06-18T00:31:21.246Z,0.00
2018-06-18T00:32:21.232Z,0.00
2018-06-18T00:33:21.210Z,0.00
2018-06-18T00:34:21.197Z,0.00
2018-06-18T00:35:21.178Z,0.00
2018-06-18T00:36:21.161Z,0.00
2018-06-18T00:37:21.144Z,0.00
2018-06-18T00:38:21.130Z,0.00
2018-06-18T00:39:21.111Z,0.00
2018-06-18T00:40:21.092Z,0.00
2018-06-18T00:41:21.077Z,0.00
2018-06-18T00:42:21.059Z,0.00
2018-06-18T00:43:21.042Z,0.00
2018-06-18T00:44:21.027Z,0.00
2018-06-18T00:45:21.012Z,0.00
2018-06-18T00:46:20.991Z,0.00
2018-06-18T00:47:20.975Z,0.00
2018-06-18T00:48:20.957Z,0.00
2018-06-18T00:49:20.948Z,0.00
2018-06-18T00:50:20.925Z,0.00
2018-06-18T00:51:20.910Z,0.00
2018-06-18T00:52:20.890Z,0.00
2018-06-18T00:53:20.872Z,0.00
2018-06-18T00:54:20.855Z,0.00
2018-06-18T00:55:20.840Z,0.00
2018-06-18T00:56:20.820Z,0.00
2018-06-18T00:57:20.805Z,0.00
2018-06-18T00:58:20.788Z,0.00
2018-06-18T00:59:20.770Z,0.00
2018-06-18T01:00:20.753Z,0.00
2018-06-18T01:01:20.741Z,0.00
2018-06-18T01:02:20.719Z,0.00
2018-06-18T01:03:20.705Z,0.00
2018-06-18T01:04:20.683Z,0.00
2018-06-18T01:05:20.666Z,0.00
2018-06-18T01:06:20.661Z,0.00
2018-06-18T01:07:20.634Z,0.00
2018-06-18T01:08:20.613Z,0.00
2018-06-18T01:09:20.598Z,0.00
2018-06-18T01:10:20.581Z,0.00
2018-06-18T01:11:20.593Z,0.00
2018-06-18T01:12:20.547Z,0.00
2018-06-18T01:13:20.532Z,0.00
2018-06-18T01:14:20.512Z,0.00
2018-06-18T01:15:20.498Z,0.00
2018-06-18T01:16:20.477Z,0.00
2018-06-18T01:17:20.462Z,0.00
2018-06-18T01:18:20.446Z,0.00
2018-06-18T01:19:20.429Z,0.00
2018-06-18T01:20:20.410Z,0.00
2018-06-18T01:21:20.391Z,0.00
2018-06-18T01:22:20.378Z,0.00
2018-06-18T01:23:20.359Z,0.00
2018-06-18T01:24:20.343Z,0.00
2018-06-18T01:25:20.321Z,0.00
2018-06-18T01:26:20.307Z,0.00
2018-06-18T01:27:20.287Z,0.00
2018-06-18T01:28:20.272Z,0.00
2018-06-18T01:29:20.253Z,0.00
2018-06-18T01:30:20.232Z,0.00
2018-06-18T01:31:20.218Z,0.00
2018-06-18T01:32:20.199Z,0.00
2018-06-18T01:33:20.187Z,0.00
2018-06-18T01:34:20.165Z,0.00
2018-06-18T01:35:20.148Z,0.00
2018-06-18T01:36:20.129Z,0.00
2018-06-18T01:37:20.116Z,0.00
2018-06-18T01:38:20.095Z,0.00
2018-06-18T01:39:20.082Z,0.00
2018-06-18T01:40:20.058Z,0.00
2018-06-18T01:41:20.046Z,0.00
2018-06-18T01:42:20.024Z,0.00
2018-06-18T01:43:20.007Z,0.00
2018-06-18T01:44:19.994Z,0.00
2018-06-18T01:45:19.972Z,0.00
2018-06-18T01:46:19.953Z,0.00
2018-06-18T01:47:19.938Z,0.00
2018-06-18T01:48:19.918Z,0.00
2018-06-18T01:49:19.902Z,0.00
2018-06-18T01:50:19.889Z,0.00
2018-06-18T01:51:19.869Z,0.00
2018-06-18T01:52:19.850Z,0.00
2018-06-18T01:53:19.832Z,0.00
2018-06-18T01:54:19.815Z,0.00
2018-06-18T01:55:19.797Z,0.00
2018-06-18T01:56:19.777Z,0.00
2018-06-18T01:57:19.766Z,0.00
2018-06-18T01:58:19.745Z,0.00
2018-06-18T01:59:19.726Z,0.00
2018-06-18T02:00:19.710Z,0.00
2018-06-18T02:01:19.692Z,0.00
2018-06-18T02:02:19.684Z,0.00
2018-06-18T02:03:19.656Z,0.00
2018-06-18T02:04:19.637Z,0.00
2018-06-18T02:05:19.620Z,0.00
2018-06-18T02:06:19.602Z,0.00
2018-06-18T02:07:19.586Z,0.00
2018-06-18T02:08:19.566Z,0.00
2018-06-18T02:09:19.552Z,0.00
2018-06-18T02:10:19.551Z,0.00
2018-06-18T02:11:19.521Z,0.00
2018-06-18T02:12:19.497Z,0.00
2018-06-18T02:13:19.482Z,0.00
2018-06-18T02:14:19.461Z,0.00
2018-06-18T02:15:19.446Z,0.00
2018-06-18T02:16:19.444Z,0.00
2018-06-18T02:17:19.411Z,0.00
2018-06-18T02:18:19.390Z,0.00
2018-06-18T02:19:19.371Z,0.00
2018-06-18T02:20:19.352Z,0.00
2018-06-18T02:21:19.340Z,0.00
2018-06-18T02:22:19.324Z,0.00
2018-06-18T02:23:19.303Z,0.00
2018-06-18T02:24:19.283Z,0.00
2018-06-18T02:25:19.267Z,0.00
2018-06-18T02:26:19.247Z,0.00
2018-06-18T02:27:19.229Z,0.00
2018-06-18T02:28:19.210Z,0.00
2018-06-18T02:29:19.193Z,0.00
2018-06-18T02:30:19.177Z,0.00
2018-06-18T02:31:19.160Z,0.00
2018-06-18T02:32:19.138Z,0.00
2018-06-18T02:33:19.125Z,0.00
2018-06-18T02:34:19.107Z,0.00
2018-06-18T02:35:19.089Z,0.00
2018-06-18T02:36:19.066Z,0.00
2018-06-18T02:37:19.051Z,0.00
2018-06-18T02:38:19.031Z,0.00
2018-06-18T02:39:19.016Z,0.00
2018-06-18T02:40:18.997Z,0.00
2018-06-18T02:41:18.978Z,0.00
2018-06-18T02:42:18.964Z,0.00
2018-06-18T02:43:18.942Z,0.00
2018-06-18T02:44:18.924Z,0.00
2018-06-18T02:45:18.910Z,0.00
2018-06-18T02:46:18.891Z,0.00
2018-06-18T02:47:18.870Z,0.00
2018-06-18T02:48:18.855Z,5.63
2018-06-18T02:49:18.834Z,5.63
2018-06-18T02:50:18.817Z,5.63
2018-06-18T02:51:18.798Z,5.63
2018-06-18T02:52:18.780Z,5.63
2018-06-18T02:53:18.763Z,5.63
2018-06-18T02:54:18.744Z,5.63
2018-06-18T02:55:18.728Z,5.63
2018-06-18T02:56:18.713Z,5.63
2018-06-18T02:57:18.691Z,5.63
2018-06-18T02:58:18.672Z,5.63
2018-06-18T02:59:18.660Z,5.63
2018-06-18T03:00:18.636Z,5.63
2018-06-18T03:01:18.619Z,5.63
2018-06-18T03:02:18.599Z,5.63
2018-06-18T03:03:18.589Z,5.63
2018-06-18T03:04:18.563Z,5.63
2018-06-18T03:05:18.547Z,11.25
2018-06-18T03:06:18.527Z,11.25
2018-06-18T03:07:18.518Z,11.25
2018-06-18T03:08:18.491Z,11.25
2018-06-18T03:09:18.475Z,11.25
2018-06-18T03:10:18.457Z,11.25
2018-06-18T03:11:18.444Z,11.25
2018-06-18T03:12:18.419Z,11.25
2018-06-18T03:13:18.404Z,11.25
2018-06-18T03:14:18.384Z,11.25
2018-06-18T03:15:18.366Z,16.88
2018-06-18T03:16:18.347Z,16.88
2018-06-18T03:17:18.332Z,16.88
2018-06-18T03:18:18.313Z,16.88
2018-06-18T03:19:18.293Z,16.88
2018-06-18T03:20:18.275Z,16.88
2018-06-18T03:21:18.259Z,16.88
2018-06-18T03:22:18.240Z,16.88
2018-06-18T03:23:18.220Z,22.50
2018-06-18T03:24:18.202Z,22.50
2018-06-18T03:25:18.182Z,22.50
2018-06-18T03:26:18.164Z,22.50
2018-06-18T03:27:18.153Z,22.50
2018-06-18T03:28:18.129Z,28.13
2018-06-18T03:29:18.110Z,28.13
2018-06-18T03:30:18.092Z,28.13
2018-06-18T03:31:18.075Z,28.13
2018-06-18T03:32:18.055Z,28.13
2018-06-18T03:33:18.040Z,28.13
2018-06-18T03:34:18.020Z,28.13
2018-06-18T03:35:18.004Z,28.13
2018-06-18T03:36:17.988Z,28.13
2018-06-18T03:37:18.003Z,28.13
2018-06-18T03:38:17.949Z,28.13
2018-06-18T03:39:17.929Z,28.13
2018-06-18T03:40:17.913Z,28.13
2018-06-18T03:41:17.895Z,28.13
2018-06-18T03:42:17.880Z,28.13
2018-06-18T03:43:17.857Z,28.13
2018-06-18T03:44:17.846Z,28.13
2018-06-18T03:45:17.822Z,28.13
2018-06-18T03:46:17.806Z,33.75
2018-06-18T03:47:17.789Z,33.75
2018-06-18T03:48:17.768Z,33.75
2018-06-18T03:49:17.753Z,33.75
2018-06-18T03:50:17.730Z,33.75
2018-06-18T03:51:17.712Z,33.75
2018-06-18T03:52:17.692Z,33.75
2018-06-18T03:53:17.675Z,33.75
2018-06-18T03:54:17.658Z,33.75
2018-06-18T03:55:17.643Z,33.75
2018-06-18T03:56:17.675Z,33.75
2018-06-18T03:57:17.601Z,33.75
2018-06-18T03:58:17.583Z,33.75
2018-06-18T03:59:17.567Z,33.75
2018-06-18T04:00:17.551Z,33.75
2018-06-18T04:01:17.528Z,33.75
2018-06-18T04:02:17.513Z,33.75
2018-06-18T04:03:17.499Z,33.75
2018-06-18T04:04:17.473Z,33.75
2018-06-18T04:05:17.515Z,39.38
2018-06-18T04:06:17.438Z,39.38
2018-06-18T04:07:17.421Z,39.38
2018-06-18T04:08:17.401Z,39.38
2018-06-18T04:10:22.610Z,45.00
2018-06-18T04:11:22.590Z,45.00
2018-06-18T04:12:22.588Z,45.00
2018-06-18T04:13:22.554Z,50.63
2018-06-18T04:14:22.543Z,50.63
2018-06-18T04:15:22.518Z,50.63
2018-06-18T04:16:22.498Z,50.63
2018-06-18T04:17:22.484Z,50.63
2018-06-18T04:18:22.464Z,50.63
2018-06-18T04:19:22.483Z,50.63
2018-06-18T04:20:22.430Z,50.63
2018-06-18T04:21:22.408Z,50.63
2018-06-18T04:22:22.395Z,50.63
2018-06-18T04:23:22.373Z,50.63
2018-06-18T04:24:22.353Z,50.63
2018-06-18T04:25:22.336Z,50.63
2018-06-18T04:26:22.317Z,50.63
2018-06-18T04:27:22.301Z,45.00
2018-06-18T04:28:22.284Z,45.00
2018-06-18T04:29:22.272Z,45.00
2018-06-18T04:30:22.246Z,45.00
2018-06-18T04:31:22.229Z,50.63
2018-06-18T04:32:22.211Z,50.63
2018-06-18T04:33:22.193Z,56.25
2018-06-18T04:34:22.173Z,56.25
2018-06-18T04:35:22.157Z,56.25
2018-06-18T04:36:22.143Z,56.25
2018-06-18T04:37:22.121Z,61.88
2018-06-18T04:38:22.112Z,61.88
2018-06-18T04:39:22.089Z,61.88
2018-06-18T04:40:22.067Z,61.88
2018-06-18T04:41:22.051Z,67.50
2018-06-18T04:42:22.032Z,67.50
2018-06-18T04:43:22.014Z,67.50
2018-06-18T04:44:21.998Z,67.50
2018-06-18T04:45:21.979Z,67.50
2018-06-18T04:46:21.961Z,67.50
2018-06-18T04:47:21.943Z,67.50
2018-06-18T04:48:21.925Z,73.13
2018-06-18T04:49:21.908Z,73.13
2018-06-18T04:50:21.890Z,78.75
2018-06-18T04:51:21.878Z,84.38
2018-06-18T04:52:21.857Z,78.75
2018-06-18T04:53:21.837Z,84.38
2018-06-18T04:54:21.819Z,84.38
2018-06-18T04:55:21.801Z,84.38
2018-06-18T04:56:21.794Z,90.00
2018-06-18T04:57:21.772Z,90.00
2018-06-18T04:58:21.750Z,95.63
2018-06-18T04:59:21.730Z,101.25
2018-06-18T05:00:21.713Z,106.88
2018-06-18T05:01:21.707Z,106.88
2018-06-18T05:02:21.679Z,106.88
2018-06-18T05:03:21.667Z,106.88
2018-06-18T05:04:21.646Z,106.88
2018-06-18T05:05:21.627Z,112.50
2018-06-18T05:06:21.611Z,118.13
2018-06-18T05:07:21.596Z,123.75
2018-06-18T05:08:21.578Z,135.00
2018-06-18T05:09:21.563Z,151.88
2018-06-18T05:10:21.541Z,174.38
2018-06-18T05:11:21.525Z,180.00
2018-06-18T05:12:21.507Z,180.00
2018-06-18T05:13:21.493Z,185.63
2018-06-18T05:14:21.473Z,185.63
2018-06-18T05:15:21.458Z,196.88
2018-06-18T05:16:21.439Z,196.88
2018-06-18T05:17:21.424Z,202.50
2018-06-18T05:18:21.406Z,208.13
2018-06-18T05:19:21.397Z,219.38
2018-06-18T05:20:21.378Z,225.00
2018-06-18T05:21:21.359Z,230.63
2018-06-18T05:22:21.341Z,230.63
2018-06-18T05:23:21.324Z,225.00
2018-06-18T05:24:21.308Z,213.75
2018-06-18T05:25:21.292Z,202.50
2018-06-18T05:26:21.327Z,185.63
2018-06-18T05:27:21.258Z,163.13
2018-06-18T05:28:21.241Z,151.88
2018-06-18T05:29:21.225Z,146.25
2018-06-18T05:30:21.215Z,140.63
2018-06-18T05:31:21.194Z,140.63
2018-06-18T05:32:21.175Z,140.63
2018-06-18T05:33:21.161Z,140.63
2018-06-18T05:34:21.148Z,135.00
2018-06-18T05:35:21.173Z,129.38
2018-06-18T05:36:21.110Z,123.75
2018-06-18T05:37:21.096Z,123.75
2018-06-18T05:38:21.078Z,129.38
2018-06-18T05:39:21.069Z,140.63
2018-06-18T05:40:21.047Z,146.25
2018-06-18T05:41:21.037Z,151.88
2018-06-18T05:42:21.017Z,151.88
2018-06-18T05:43:21.031Z,151.88
2018-06-18T05:44:20.988Z,151.88
2018-06-18T05:45:20.970Z,151.88
2018-06-18T05:46:20.954Z,157.50
2018-06-18T05:47:20.938Z,157.50
2018-06-18T05:48:20.923Z,157.50
2018-06-18T05:49:20.917Z,157.50
2018-06-18T05:50:20.917Z,168.75
2018-06-18T05:51:20.878Z,180.00
2018-06-18T05:52:20.861Z,185.63
2018-06-18T05:53:20.847Z,191.25
2018-06-18T05:54:20.830Z,196.88
2018-06-18T05:55:20.817Z,196.88
2018-06-18T05:56:20.803Z,196.88
2018-06-18T05:57:20.784Z,191.25
2018-06-18T05:58:20.770Z,191.25
2018-06-18T05:59:20.754Z,185.63
2018-06-18T06:00:20.741Z,174.38
2018-06-18T06:01:20.726Z,163.13
2018-06-18T06:02:20.712Z,163.13
2018-06-18T06:03:20.695Z,174.38
2018-06-18T06:04:20.679Z,191.25
2018-06-18T06:05:20.663Z,196.88
2018-06-18T06:06:20.648Z,219.38
2018-06-18T06:07:20.633Z,236.25
2018-06-18T06:08:20.618Z,247.50
2018-06-18T06:09:20.606Z,247.50
2018-06-18T06:10:20.588Z,247.50
2018-06-18T06:11:20.574Z,253.13
2018-06-18T06:12:20.563Z,247.50
2018-06-18T06:13:20.544Z,241.88
2018-06-18T06:14:20.530Z,241.88
2018-06-18T06:15:20.517Z,230.63
2018-06-18T06:16:20.507Z,219.38
2018-06-18T06:17:20.489Z,208.13
2018-06-18T06:18:20.473Z,191.25
2018-06-18T06:19:20.465Z,168.75
2018-06-18T06:20:20.445Z,163.13
2018-06-18T06:21:20.432Z,168.75
2018-06-18T06:22:20.425Z,174.38
2018-06-18T06:23:20.399Z,191.25
2018-06-18T06:24:20.389Z,208.13
2018-06-18T06:25:20.374Z,225.00
2018-06-18T06:26:20.360Z,236.25
2018-06-18T06:27:20.344Z,236.25
2018-06-18T06:28:20.332Z,236.25
2018-06-18T06:29:20.316Z,230.63
2018-06-18T06:30:20.300Z,236.25
2018-06-18T06:31:20.288Z,236.25
2018-06-18T06:32:20.279Z,241.88
2018-06-18T06:33:20.259Z,241.88
2018-06-18T06:34:20.241Z,247.50
2018-06-18T06:35:20.234Z,247.50
2018-06-18T06:36:20.216Z,253.13
2018-06-18T06:37:20.204Z,247.50
2018-06-18T06:38:20.192Z,247.50
2018-06-18T06:39:20.174Z,241.88
2018-06-18T06:40:20.161Z,241.88
2018-06-18T06:41:20.146Z,253.13
2018-06-18T06:42:20.131Z,270.00
2018-06-18T06:43:20.121Z,286.88
2018-06-18T06:44:20.105Z,315.00
2018-06-18T06:45:20.089Z,337.50
2018-06-18T06:46:20.075Z,360.00
2018-06-18T06:47:20.062Z,365.63
2018-06-18T06:48:20.049Z,365.63
2018-06-18T06:49:20.035Z,365.63
2018-06-18T06:50:20.021Z,371.25
2018-06-18T06:51:20.007Z,365.63
2018-06-18T06:52:19.997Z,354.38
2018-06-18T06:53:19.983Z,343.13
2018-06-18T06:54:19.966Z,331.88
2018-06-18T06:55:19.952Z,337.50
2018-06-18T06:56:19.943Z,343.13
2018-06-18T06:57:19.931Z,354.38
2018-06-18T06:58:19.912Z,365.63
2018-06-18T06:59:19.898Z,360.00
2018-06-18T07:00:19.895Z,371.25
2018-06-18T07:01:19.929Z,388.13
2018-06-18T07:02:19.863Z,393.75
2018-06-18T07:03:19.848Z,393.75
2018-06-18T07:04:19.833Z,393.75
2018-06-18T07:05:19.821Z,405.00
2018-06-18T07:06:19.810Z,410.63
2018-06-18T07:07:19.796Z,410.63
2018-06-18T07:08:19.782Z,410.63
2018-06-18T07:09:19.771Z,410.63
2018-06-18T07:10:19.758Z,399.38
2018-06-18T07:11:19.745Z,399.38
2018-06-18T07:12:19.785Z,405.00
2018-06-18T07:13:19.753Z,410.63
2018-06-18T07:14:19.706Z,427.50
2018-06-18T07:15:19.695Z,427.50
2018-06-18T07:16:19.680Z,427.50
2018-06-18T07:17:19.668Z,421.88
2018-06-18T07:18:19.661Z,416.25
2018-06-18T07:19:19.651Z,427.50
2018-06-18T07:20:19.640Z,438.75
2018-06-18T07:21:19.619Z,427.50
2018-06-18T07:22:19.605Z,405.00
2018-06-18T07:23:19.595Z,388.13
2018-06-18T07:24:19.583Z,399.38
2018-06-18T07:25:19.572Z,410.63
2018-06-18T07:26:19.558Z,421.88
2018-06-18T07:27:19.544Z,433.13
2018-06-18T07:28:19.539Z,438.75
2018-06-18T07:29:19.519Z,433.13
2018-06-18T07:30:19.573Z,433.13
2018-06-18T07:31:19.498Z,444.38
2018-06-18T07:32:19.487Z,461.25
2018-06-18T07:33:19.472Z,478.13
2018-06-18T07:34:19.459Z,495.00
2018-06-18T07:35:19.448Z,483.75
2018-06-18T07:36:19.437Z,478.13
2018-06-18T07:37:19.425Z,472.50
2018-06-18T07:38:19.412Z,478.13
2018-06-18T07:39:19.402Z,478.13
2018-06-18T07:40:19.389Z,466.88
2018-06-18T07:41:19.378Z,444.38
2018-06-18T07:42:19.364Z,433.13
2018-06-18T07:43:19.353Z,421.88
2018-06-18T07:44:19.346Z,416.25
2018-06-18T07:45:19.331Z,416.25
2018-06-18T07:46:19.324Z,421.88
2018-06-18T07:47:19.313Z,427.50
2018-06-18T07:48:19.299Z,444.38
2018-06-18T07:49:19.287Z,455.63
2018-06-18T07:50:19.323Z,461.25
2018-06-18T07:51:19.264Z,472.50
2018-06-18T07:52:19.253Z,478.13
2018-06-18T07:53:19.242Z,495.00
2018-06-18T07:54:19.229Z,500.63
2018-06-18T07:55:19.217Z,511.88
2018-06-18T07:56:19.207Z,517.50
2018-06-18T07:57:19.197Z,517.50
2018-06-18T07:58:19.183Z,528.75
2018-06-18T07:59:19.171Z,528.75
2018-06-18T08:00:19.161Z,528.75
2018-06-18T08:01:19.150Z,523.13
2018-06-18T08:02:19.139Z,511.88
2018-06-18T08:03:19.128Z,506.25
2018-06-18T08:04:19.117Z,534.38
2018-06-18T08:05:19.105Z,540.00
2018-06-18T08:06:19.097Z,551.25
2018-06-18T08:07:19.085Z,562.50
2018-06-18T08:08:19.073Z,601.88
2018-06-18T08:09:19.064Z,635.63
2018-06-18T08:10:19.051Z,658.13
2018-06-18T08:11:19.041Z,669.38
2018-06-18T08:12:19.029Z,624.38
2018-06-18T08:13:19.020Z,579.38
2018-06-18T08:14:19.008Z,511.88
2018-06-18T08:15:18.997Z,438.75
2018-06-18T08:16:18.986Z,405.00
2018-06-18T08:17:18.982Z,410.63
2018-06-18T08:18:18.966Z,427.50
2018-06-18T08:19:18.955Z,444.38
2018-06-18T08:20:18.946Z,478.13
2018-06-18T08:21:18.936Z,472.50
2018-06-18T08:22:18.923Z,478.13
2018-06-18T08:23:18.912Z,495.00
2018-06-18T08:24:18.905Z,568.13
2018-06-18T08:25:18.895Z,607.50
2018-06-18T08:26:18.881Z,686.25
2018-06-18T08:27:18.871Z,781.88
2018-06-18T08:28:18.864Z,838.13
2018-06-18T08:29:18.855Z,984.38
2018-06-18T08:30:18.842Z,990.00
2018-06-18T08:31:18.828Z,1029.38
2018-06-18T08:32:18.870Z,990.00
2018-06-18T08:33:18.809Z,821.25
2018-06-18T08:34:18.798Z,787.50
2018-06-18T08:35:18.794Z,871.88
2018-06-18T08:36:18.853Z,663.75
2018-06-18T08:37:18.773Z,691.88
2018-06-18T08:38:18.760Z,736.88
2018-06-18T08:39:18.751Z,759.38
2018-06-18T08:40:18.748Z,832.50
2018-06-18T08:41:18.732Z,894.38
2018-06-18T08:42:18.722Z,933.75
2018-06-18T08:43:18.711Z,995.63
2018-06-18T08:44:18.708Z,1147.50
2018-06-18T08:45:18.694Z,984.38
2018-06-18T08:46:18.695Z,1080.00
2018-06-18T08:47:18.680Z,1074.38
2018-06-18T08:48:18.669Z,759.38
2018-06-18T08:49:18.662Z,669.38
2018-06-18T08:50:18.646Z,2356.88
2018-06-18T08:51:18.638Z,3003.75
2018-06-18T08:52:18.633Z,1687.50
2018-06-18T08:53:18.620Z,1276.88
2018-06-18T08:54:18.610Z,961.88
2018-06-18T08:55:18.603Z,1068.75
2018-06-18T08:56:18.593Z,939.38
2018-06-18T08:57:18.585Z,978.75
2018-06-18T08:58:18.576Z,1130.63
2018-06-18T08:59:18.570Z,1063.13
2018-06-18T09:00:18.560Z,950.63
2018-06-18T09:01:18.552Z,888.75
2018-06-18T09:02:18.543Z,877.50
2018-06-18T09:03:18.548Z,1035.00
2018-06-18T09:04:18.527Z,990.00
2018-06-18T09:05:18.522Z,967.50
2018-06-18T09:06:18.512Z,939.38
2018-06-18T09:07:18.503Z,1102.50
2018-06-18T09:08:18.493Z,1040.63
2018-06-18T09:09:18.489Z,1276.88
2018-06-18T09:10:18.476Z,1316.25
2018-06-18T09:11:18.470Z,1186.88
2018-06-18T09:12:18.461Z,1125.00
2018-06-18T09:13:18.454Z,1485.00
2018-06-18T09:14:18.445Z,1395.00
2018-06-18T09:15:18.442Z,1260.00
2018-06-18T09:16:18.434Z,770.63
2018-06-18T09:17:18.423Z,703.13
2018-06-18T09:18:18.415Z,686.25
2018-06-18T09:19:18.410Z,871.88
2018-06-18T09:20:18.401Z,838.13
2018-06-18T09:21:18.393Z,883.13
2018-06-18T09:22:18.393Z,888.75
2018-06-18T09:23:18.377Z,849.38
2018-06-18T09:24:18.372Z,1260.00
2018-06-18T09:25:18.367Z,888.75
2018-06-18T09:26:18.356Z,945.00
2018-06-18T09:27:18.348Z,871.88
2018-06-18T09:28:18.344Z,866.25
2018-06-18T09:29:18.334Z,894.38
2018-06-18T09:30:18.324Z,905.63
2018-06-18T09:31:18.318Z,883.13
2018-06-18T09:32:18.438Z,810.00
2018-06-18T09:33:18.308Z,804.38
2018-06-18T09:34:18.300Z,928.13
2018-06-18T09:35:18.287Z,973.13
2018-06-18T09:36:18.280Z,871.88
2018-06-18T09:37:18.276Z,815.63
2018-06-18T09:38:18.266Z,736.88
2018-06-18T09:39:18.257Z,793.13
2018-06-18T09:40:18.252Z,720.00
2018-06-18T09:41:18.250Z,748.13
2018-06-18T09:42:18.238Z,776.25
2018-06-18T09:43:18.231Z,855.00
2018-06-18T09:44:18.241Z,905.63
2018-06-18T09:45:18.217Z,1878.75
2018-06-18T09:46:18.206Z,1018.13
2018-06-18T09:47:18.200Z,1046.25
2018-06-18T09:48:18.194Z,1490.63
2018-06-18T09:49:18.185Z,888.75
2018-06-18T09:50:18.178Z,911.25
2018-06-18T09:51:18.169Z,1023.75
2018-06-18T09:52:18.162Z,821.25
2018-06-18T09:53:18.167Z,900.00
2018-06-18T09:54:18.146Z,1108.13
2018-06-18T09:55:18.191Z,1023.75
2018-06-18T09:56:18.134Z,1192.50
2018-06-18T09:57:18.128Z,1569.38
2018-06-18T09:58:18.116Z,1282.50
2018-06-18T09:59:18.117Z,984.38
2018-06-18T10:00:18.112Z,956.25
2018-06-18T10:01:18.096Z,1091.25
2018-06-18T10:02:18.146Z,1141.88
2018-06-18T10:03:18.079Z,1170.00
2018-06-18T10:04:18.072Z,1181.25
2018-06-18T10:05:18.066Z,1968.75
2018-06-18T10:06:18.062Z,2396.25
2018-06-18T10:07:18.053Z,1192.50
2018-06-18T10:08:18.077Z,928.13
2018-06-18T10:09:18.036Z,1569.38
2018-06-18T10:10:18.034Z,1175.63
2018-06-18T10:11:18.025Z,866.25
2018-06-18T10:12:18.015Z,697.50
2018-06-18T10:13:18.009Z,1198.13
2018-06-18T10:14:18.002Z,607.50
2018-06-18T10:15:17.993Z,500.63
2018-06-18T10:16:17.987Z,450.00
2018-06-18T10:17:17.980Z,663.75
2018-06-18T10:18:17.971Z,466.88
2018-06-18T10:19:17.971Z,489.38
2018-06-18T10:20:17.958Z,866.25
2018-06-18T10:21:17.951Z,1501.88
2018-06-18T10:22:17.941Z,2278.13
2018-06-18T10:23:17.935Z,3526.88
2018-06-18T10:24:18.062Z,1220.63
2018-06-18T10:25:17.925Z,1839.38
2018-06-18T10:26:17.913Z,6024.38
2018-06-18T10:27:17.906Z,6283.13
2018-06-18T10:28:17.900Z,4342.50
2018-06-18T10:29:17.901Z,6063.75
2018-06-18T10:30:17.887Z,5900.63
2018-06-18T10:31:17.881Z,1985.63
2018-06-18T10:32:17.882Z,916.88
2018-06-18T10:33:17.866Z,2081.25
2018-06-18T10:34:17.864Z,1912.50
2018-06-18T10:35:17.858Z,2604.38
2018-06-18T10:36:17.852Z,1901.25
2018-06-18T10:37:17.844Z,1957.50
2018-06-18T10:38:17.846Z,1423.13
2018-06-18T10:39:17.833Z,900.00
2018-06-18T10:40:17.827Z,630.00
2018-06-18T10:41:17.828Z,590.63
2018-06-18T10:42:17.815Z,652.50
2018-06-18T10:43:17.813Z,1636.88
2018-06-18T10:44:17.804Z,1636.88
2018-06-18T10:45:17.799Z,1591.88
2018-06-18T10:46:17.794Z,1721.25
2018-06-18T10:47:17.796Z,770.63
2018-06-18T10:48:17.783Z,433.13
2018-06-18T10:49:17.780Z,348.75
2018-06-18T10:50:17.772Z,354.38
2018-06-18T10:51:17.779Z,483.75
2018-06-18T10:52:17.766Z,1265.63
2018-06-18T10:53:17.758Z,1153.13
2018-06-18T10:54:17.753Z,1119.38
2018-06-18T10:55:17.748Z,1108.13
2018-06-18T10:56:17.747Z,1102.50
2018-06-18T10:57:17.743Z,1113.75
2018-06-18T10:58:17.735Z,1192.50
2018-06-18T10:59:17.731Z,1209.38
2018-06-18T11:00:17.726Z,1243.13
2018-06-18T11:01:17.722Z,1293.75
2018-06-18T11:02:17.719Z,1192.50
2018-06-18T11:03:17.713Z,1113.75
2018-06-18T11:04:17.713Z,1108.13
2018-06-18T11:05:17.705Z,1091.25
2018-06-18T11:06:17.702Z,630.00
2018-06-18T11:07:17.705Z,1158.75
2018-06-18T11:08:17.697Z,1181.25
2018-06-18T11:09:17.697Z,714.38
2018-06-18T11:10:17.705Z,540.00
2018-06-18T11:11:17.689Z,1147.50
2018-06-18T11:12:17.686Z,1198.13
2018-06-18T11:13:17.686Z,1130.63
2018-06-18T11:14:17.681Z,1091.25
2018-06-18T11:15:17.680Z,1085.63
2018-06-18T11:16:17.819Z,1085.63
2018-06-18T11:17:17.891Z,1085.63
2018-06-18T11:18:17.670Z,343.13
2018-06-18T11:19:17.671Z,343.13
2018-06-18T11:20:17.664Z,348.75
2018-06-18T11:21:17.669Z,388.13
2018-06-18T11:22:17.664Z,365.63
2018-06-18T11:23:17.660Z,258.75
2018-06-18T11:24:17.657Z,253.13
2018-06-18T11:25:17.700Z,264.38
2018-06-18T11:26:17.696Z,213.75
2018-06-18T11:27:17.711Z,196.88
2018-06-18T11:28:17.751Z,348.75
2018-06-18T11:29:17.641Z,354.38
2018-06-18T11:30:17.636Z,360.00
2018-06-18T11:31:17.679Z,365.63
2018-06-18T11:32:17.661Z,399.38
2018-06-18T11:33:17.628Z,438.75
2018-06-18T11:34:17.622Z,455.63
2018-06-18T11:35:17.618Z,472.50
2018-06-18T11:36:17.615Z,241.88
2018-06-18T11:37:17.613Z,500.63
2018-06-18T11:38:17.612Z,315.00
2018-06-18T11:39:17.644Z,399.38
2018-06-18T11:40:17.601Z,478.13
2018-06-18T11:41:17.603Z,500.63
2018-06-18T11:42:17.629Z,641.25
2018-06-18T11:43:17.640Z,708.75
2018-06-18T11:44:17.587Z,489.38
2018-06-18T11:45:17.579Z,365.63
2018-06-18T11:46:17.575Z,337.50
2018-06-18T11:47:17.571Z,320.63
2018-06-18T11:48:17.634Z,247.50
2018-06-18T11:49:17.562Z,253.13
2018-06-18T11:50:17.604Z,219.38
2018-06-18T11:51:17.551Z,208.13
2018-06-18T11:52:17.557Z,208.13
2018-06-18T11:53:17.547Z,230.63
2018-06-18T11:54:17.555Z,303.75
2018-06-18T11:55:17.533Z,354.38
2018-06-18T11:56:17.530Z,309.38
2018-06-18T11:57:17.525Z,298.13
2018-06-18T11:58:17.531Z,275.63
2018-06-18T11:59:17.517Z,264.38
2018-06-18T12:00:17.506Z,264.38
2018-06-18T12:01:17.525Z,230.63
2018-06-18T12:02:17.495Z,202.50
2018-06-18T12:03:17.491Z,236.25
2018-06-18T12:04:17.488Z,241.88
2018-06-18T12:05:17.482Z,241.88
2018-06-18T12:06:17.474Z,241.88
2018-06-18T12:07:17.489Z,264.38
2018-06-18T12:08:17.463Z,275.63
2018-06-18T12:09:17.477Z,247.50
2018-06-18T12:10:17.452Z,241.88
2018-06-18T12:11:17.443Z,219.38
2018-06-18T12:12:17.438Z,219.38
2018-06-18T12:13:17.435Z,230.63
2018-06-18T12:14:17.426Z,241.88
2018-06-18T12:15:17.420Z,258.75
2018-06-18T12:16:17.413Z,258.75
2018-06-18T12:17:17.410Z,241.88
2018-06-18T12:18:17.401Z,225.00
2018-06-18T12:19:17.394Z,219.38
2018-06-18T12:20:17.392Z,225.00
2018-06-18T12:21:17.381Z,225.00
2018-06-18T12:22:17.399Z,208.13
2018-06-18T12:23:17.471Z,185.63
2018-06-18T12:24:17.359Z,185.63
2018-06-18T12:25:17.354Z,326.25
2018-06-18T12:26:17.346Z,326.25
2018-06-18T12:27:17.342Z,320.63
2018-06-18T12:28:17.334Z,331.88
2018-06-18T12:29:17.327Z,331.88
2018-06-18T12:30:17.318Z,326.25
2018-06-18T12:31:17.311Z,315.00
2018-06-18T12:32:17.314Z,315.00
2018-06-18T12:33:17.299Z,292.50
2018-06-18T12:34:17.287Z,281.25
2018-06-18T12:35:17.300Z,281.25
2018-06-18T12:36:17.274Z,292.50
2018-06-18T12:37:17.374Z,292.50
2018-06-18T12:38:17.257Z,298.13
2018-06-18T12:39:17.252Z,298.13
2018-06-18T12:40:17.245Z,298.13
2018-06-18T12:41:17.303Z,309.38